Time;durP1;ratioP1;P1;durP2;ratioP2;P2;SDS_P1;SDS_P2;PMS_P1;PMS_P2;Temp;Humidity;BMP_temperature;BMP_pressure;BME280_temperature;BME280_humidity;BME280_pressure;Samples;Min_cycle;Max_cycle;Signal;HPM_P1;HPM_P2
2022/03/19 00:00:14;;;;;;;9.77;5.72;;;10.00;91.30;;;;;;5054626;28;20563;-66
2022/03/19 00:02:41;;;;;;;11.15;4.70;;;10.10;91.50;;;;;;5055943;28;20232;-66
2022/03/19 00:05:09;;;;;;;11.20;4.88;;;10.00;91.40;;;;;;5055160;28;20216;-66
2022/03/19 00:07:37;;;;;;;8.27;4.97;;;10.00;91.20;;;;;;5055419;28;20279;-66
2022/03/19 00:10:08;;;;;;;8.98;4.78;;;10.00;91.20;;;;;;5055264;28;20548;-66
2022/03/19 00:12:36;;;;;;;8.70;5.28;;;9.90;91.80;;;;;;5055070;28;20229;-65
2022/03/19 00:15:03;;;;;;;8.50;4.20;;;9.90;91.60;;;;;;5054796;28;20225;-65
2022/03/19 00:17:31;;;;;;;10.77;4.60;;;9.90;91.50;;;;;;5055371;28;20221;-65
2022/03/19 00:19:58;;;;;;;10.00;4.22;;;9.80;91.30;;;;;;5055180;28;20231;-65
2022/03/19 00:22:25;;;;;;;10.05;4.22;;;9.80;91.30;;;;;;5055150;28;20236;-65
2022/03/19 00:24:52;;;;;;;9.65;5.70;;;9.80;91.20;;;;;;5053533;28;20709;-65
2022/03/19 00:27:19;;;;;;;9.98;5.40;;;9.80;91.20;;;;;;5053393;28;20221;-64
2022/03/19 00:29:46;;;;;;;16.23;5.18;;;9.80;91.20;;;;;;5051262;28;20261;-65
2022/03/19 00:32:13;;;;;;;8.80;4.05;;;9.70;91.20;;;;;;5054386;28;20232;-65
2022/03/19 00:34:41;;;;;;;6.72;4.30;;;9.70;91.30;;;;;;5054757;28;20221;-65
2022/03/19 00:37:08;;;;;;;9.77;4.32;;;9.70;91.20;;;;;;5052457;28;20228;-65
2022/03/19 00:39:34;;;;;;;11.65;5.65;;;9.60;91.20;;;;;;5054509;28;20224;-65
2022/03/19 00:42:01;;;;;;;14.00;6.57;;;9.60;91.30;;;;;;5054409;28;20225;-65
2022/03/19 00:44:28;;;;;;;7.30;4.40;;;9.50;91.20;;;;;;5054733;28;20217;-65
2022/03/19 00:46:55;;;;;;;14.88;5.72;;;9.50;91.20;;;;;;5054545;28;20224;-66
2022/03/19 00:49:22;;;;;;;6.82;4.10;;;9.50;91.40;;;;;;5054878;28;20263;-65
2022/03/19 00:51:50;;;;;;;17.50;5.03;;;9.50;91.40;;;;;;5053928;28;20241;-65
2022/03/19 00:54:17;;;;;;;8.82;4.32;;;9.40;91.40;;;;;;5054763;28;20229;-65
2022/03/19 00:56:46;;;;;;;12.52;8.70;;;9.40;91.40;;;;;;5053355;28;20228;-64
2022/03/19 00:59:12;;;;;;;10.00;4.90;;;9.40;91.60;;;;;;5054413;28;20232;-65
2022/03/19 01:01:39;;;;;;;7.35;4.25;;;9.30;91.80;;;;;;5054535;28;20224;-66
2022/03/19 01:04:06;;;;;;;14.20;5.30;;;9.30;91.80;;;;;;5053769;28;20228;-66
2022/03/19 01:06:33;;;;;;;14.18;5.50;;;9.30;91.90;;;;;;5053878;28;20217;-65
2022/03/19 01:09:01;;;;;;;7.40;4.93;;;9.20;91.90;;;;;;5054339;28;20244;-65
2022/03/19 01:11:28;;;;;;;9.75;5.55;;;9.20;92.10;;;;;;5054463;28;20216;-65
2022/03/19 01:13:55;;;;;;;9.63;5.22;;;9.10;92.10;;;;;;5053923;28;20225;-66
2022/03/19 01:16:23;;;;;;;8.07;5.30;;;9.10;92.20;;;;;;5054445;28;20744;-66
2022/03/19 01:18:50;;;;;;;11.77;5.60;;;9.10;92.30;;;;;;5045500;28;20306;-66
2022/03/19 01:21:18;;;;;;;10.93;5.32;;;9.10;92.40;;;;;;5052781;28;20225;-66
2022/03/19 01:23:44;;;;;;;9.23;5.03;;;9.10;92.50;;;;;;5054240;28;20231;-66
2022/03/19 01:26:13;;;;;;;14.88;5.22;;;9.10;92.50;;;;;;5052964;28;20240;-66
2022/03/19 01:28:39;;;;;;;11.82;5.10;;;9.10;92.50;;;;;;5051652;28;20250;-66
2022/03/19 01:31:06;;;;;;;9.25;4.90;;;9.00;92.60;;;;;;5052979;28;20229;-66
2022/03/19 01:33:33;;;;;;;8.60;5.00;;;9.00;92.80;;;;;;5053643;28;20225;-65
2022/03/19 01:36:00;;;;;;;11.55;4.45;;;9.00;92.80;;;;;;5053690;28;20652;-65
2022/03/19 01:38:27;;;;;;;8.70;4.32;;;9.00;92.90;;;;;;5054095;28;20221;-65
2022/03/19 01:40:53;;;;;;;12.45;5.50;;;9.00;92.90;;;;;;5053551;28;20221;-65
2022/03/19 01:43:22;;;;;;;12.55;5.20;;;8.90;92.90;;;;;;5054137;28;20565;-65
2022/03/19 01:45:49;;;;;;;11.50;5.53;;;8.90;93.10;;;;;;5053663;28;20575;-65
2022/03/19 01:48:16;;;;;;;9.05;5.05;;;8.80;93.30;;;;;;5052951;28;20232;-65
2022/03/19 01:50:43;;;;;;;8.68;4.95;;;8.80;93.30;;;;;;5053666;28;20245;-65
2022/03/19 01:53:10;;;;;;;8.70;5.68;;;8.80;93.50;;;;;;5053103;28;20304;-65
2022/03/19 01:55:37;;;;;;;12.80;5.00;;;8.80;93.40;;;;;;5052669;28;20222;-65
2022/03/19 01:58:04;;;;;;;10.15;5.40;;;8.80;93.50;;;;;;5052478;28;20223;-65
2022/03/19 02:00:32;;;;;;;13.50;5.65;;;8.80;93.60;;;;;;5053267;28;20225;-65
2022/03/19 02:02:59;;;;;;;11.60;5.35;;;8.70;93.70;;;;;;5041087;28;20323;-66
2022/03/19 02:05:26;;;;;;;10.95;4.95;;;8.70;93.90;;;;;;5052440;28;20228;-66
2022/03/19 02:07:53;;;;;;;10.55;6.07;;;8.70;93.90;;;;;;5052379;28;20221;-65
2022/03/19 02:10:22;;;;;;;7.85;5.43;;;8.70;94.00;;;;;;5053599;28;20632;-65
2022/03/19 02:12:50;;;;;;;15.90;6.80;;;8.70;94.10;;;;;;5052966;28;20225;-65
2022/03/19 02:15:17;;;;;;;11.43;5.70;;;8.70;94.20;;;;;;5052966;28;20562;-65
2022/03/19 02:17:45;;;;;;;11.48;5.03;;;8.70;94.20;;;;;;5053360;28;20316;-65
2022/03/19 02:20:12;;;;;;;8.43;4.95;;;8.70;94.10;;;;;;5047876;28;20217;-65
2022/03/19 02:22:39;;;;;;;11.38;5.57;;;8.60;94.20;;;;;;5052735;28;20224;-65
2022/03/19 02:27:53;;;;;;;11.55;5.25;;;8.50;94.50;;;;;;5053020;28;20295;-66
2022/03/19 02:30:20;;;;;;;8.70;4.60;;;8.50;94.50;;;;;;5049257;28;20269;-66
2022/03/19 02:32:49;;;;;;;11.10;4.80;;;8.50;94.60;;;;;;5043146;28;20252;-66
2022/03/19 02:35:17;;;;;;;11.43;5.38;;;8.50;94.70;;;;;;5052825;28;20540;-66
2022/03/19 02:37:46;;;;;;;13.10;5.88;;;8.50;94.80;;;;;;5052661;28;20218;-66
2022/03/19 02:40:16;;;;;;;9.15;5.13;;;8.50;94.90;;;;;;5052225;28;20221;-66
2022/03/19 02:42:43;;;;;;;16.83;5.80;;;8.50;95.00;;;;;;5052875;28;20232;-66
2022/03/19 02:45:10;;;;;;;11.40;5.10;;;8.40;95.20;;;;;;5052164;28;20229;-65
2022/03/19 02:47:56;;;;;;;11.93;6.35;;;8.40;95.30;;;;;;5052892;28;20232;-66
2022/03/19 02:50:25;;;;;;;13.73;6.35;;;8.40;95.40;;;;;;5051180;28;20233;-68
2022/03/19 02:52:52;;;;;;;10.98;6.00;;;8.30;95.50;;;;;;5053004;28;20244;-65
2022/03/19 02:55:20;;;;;;;8.60;4.55;;;8.30;95.60;;;;;;5052268;28;20232;-64
2022/03/19 02:57:47;;;;;;;8.82;5.75;;;8.40;95.80;;;;;;5052441;28;20221;-65
2022/03/19 03:00:15;;;;;;;12.65;5.75;;;8.30;95.90;;;;;;5051689;28;20221;-65
2022/03/19 03:02:41;;;;;;;19.83;6.65;;;8.30;96.00;;;;;;5039120;28;20221;-66
2022/03/19 03:05:12;;;;;;;12.07;5.80;;;8.40;96.20;;;;;;5038708;28;20233;-66
2022/03/19 03:07:39;;;;;;;14.10;6.75;;;8.30;96.30;;;;;;5052498;28;20225;-66
2022/03/19 03:10:07;;;;;;;10.25;6.70;;;8.30;96.60;;;;;;5051890;28;20221;-65
2022/03/19 03:12:38;;;;;;;11.52;6.15;;;8.20;96.80;;;;;;5052021;28;20225;-66
2022/03/19 03:15:05;;;;;;;13.25;5.45;;;8.10;97.00;;;;;;5051918;28;20228;-66
2022/03/19 03:17:34;;;;;;;11.25;6.28;;;8.10;97.30;;;;;;5052558;28;20224;-66
2022/03/19 03:20:01;;;;;;;12.88;6.93;;;8.00;97.40;;;;;;5051848;28;20251;-66
2022/03/19 03:22:29;;;;;;;9.63;5.40;;;8.00;97.50;;;;;;5052075;28;20225;-65
2022/03/19 03:24:55;;;;;;;9.70;6.10;;;7.90;97.60;;;;;;5050150;28;20228;-66
2022/03/19 03:27:22;;;;;;;11.82;5.55;;;7.90;97.60;;;;;;5051927;28;20224;-66
2022/03/19 03:29:50;;;;;;;14.80;5.35;;;7.90;97.60;;;;;;5052243;28;20714;-66
2022/03/19 03:32:17;;;;;;;10.52;6.20;;;7.80;97.60;;;;;;5051103;28;20228;-66
2022/03/19 03:34:44;;;;;;;14.60;6.68;;;7.80;97.70;;;;;;5052276;28;20224;-66
2022/03/19 03:37:13;;;;;;;9.13;5.75;;;7.70;97.90;;;;;;5051940;28;20247;-66
2022/03/19 03:39:40;;;;;;;10.27;5.20;;;7.70;97.70;;;;;;5062363;28;20319;-66
2022/03/19 03:42:07;;;;;;;8.30;5.65;;;7.70;97.80;;;;;;5051741;28;20229;-66
2022/03/19 03:44:34;;;;;;;18.67;7.13;;;7.60;97.90;;;;;;5052077;28;20227;-66
2022/03/19 03:47:02;;;;;;;9.48;5.38;;;7.60;98.00;;;;;;5052189;28;20236;-66
2022/03/19 03:49:29;;;;;;;12.18;6.13;;;7.50;98.20;;;;;;5050635;28;20228;-66
2022/03/19 03:51:56;;;;;;;10.20;5.85;;;7.50;98.20;;;;;;5051604;28;20694;-66
2022/03/19 03:54:23;;;;;;;11.23;5.05;;;7.50;98.40;;;;;;5051552;28;20225;-66
2022/03/19 03:56:51;;;;;;;11.82;6.25;;;7.50;98.40;;;;;;5051995;28;20213;-65
2022/03/19 03:59:19;;;;;;;14.35;6.93;;;7.40;98.20;;;;;;5051435;28;20236;-66
2022/03/19 04:01:46;;;;;;;15.88;7.05;;;7.40;98.30;;;;;;5052116;28;20247;-65
2022/03/19 04:04:14;;;;;;;13.15;6.10;;;7.40;98.30;;;;;;5037657;28;20308;-66
2022/03/19 04:06:41;;;;;;;8.85;5.00;;;7.40;98.30;;;;;;5045622;28;20598;-65
2022/03/19 04:09:07;;;;;;;11.52;4.80;;;7.30;98.40;;;;;;5051536;28;20225;-66
2022/03/19 04:11:37;;;;;;;12.35;5.53;;;7.30;98.40;;;;;;5052140;28;20225;-66
2022/03/19 04:14:04;;;;;;;8.82;5.07;;;7.30;98.40;;;;;;5055497;28;20229;-66
2022/03/19 04:16:31;;;;;;;8.65;4.57;;;7.30;98.50;;;;;;5055131;28;20225;-66
2022/03/19 04:18:58;;;;;;;7.40;5.05;;;7.30;98.50;;;;;;5055751;28;20720;-66
2022/03/19 04:21:26;;;;;;;10.77;5.75;;;7.20;98.60;;;;;;5054973;28;20228;-66
2022/03/19 04:23:52;;;;;;;7.18;4.55;;;7.20;98.60;;;;;;5055262;28;20227;-66
2022/03/19 04:26:19;;;;;;;9.30;4.80;;;7.20;98.50;;;;;;5055141;28;20237;-66
2022/03/19 04:28:46;;;;;;;10.85;6.65;;;7.20;98.60;;;;;;5055365;28;20694;-66
2022/03/19 04:31:13;;;;;;;16.05;6.40;;;7.20;98.60;;;;;;5054608;28;20220;-66
2022/03/19 04:33:40;;;;;;;13.60;6.25;;;7.20;98.80;;;;;;5055165;28;20244;-66
2022/03/19 04:38:52;;;;;;;12.55;5.72;;;7.20;98.60;;;;;;5044168;28;20734;-66
2022/03/19 04:41:19;;;;;;;13.52;6.85;;;7.10;98.70;;;;;;5054888;28;20221;-66
2022/03/19 04:43:46;;;;;;;9.05;4.95;;;7.10;98.90;;;;;;5054794;28;20229;-66
2022/03/19 04:46:13;;;;;;;13.52;5.70;;;7.10;98.60;;;;;;5054673;28;20224;-66
2022/03/19 04:48:42;;;;;;;13.55;5.30;;;7.00;98.80;;;;;;5055007;28;20352;-66
2022/03/19 04:51:09;;;;;;;10.38;4.82;;;7.00;99.00;;;;;;5054221;28;21297;-66
2022/03/19 04:53:36;;;;;;;11.32;5.55;;;7.00;99.20;;;;;;5054756;28;20253;-66
2022/03/19 04:56:05;;;;;;;7.30;5.10;;;6.90;99.20;;;;;;5054590;28;20683;-65
2022/03/19 04:58:33;;;;;;;5.90;5.18;;;6.90;99.10;;;;;;5054562;28;20241;-66
2022/03/19 05:01:06;;;;;;;9.27;5.28;;;6.90;99.10;;;;;;5053919;28;20260;-65
2022/03/19 05:03:33;;;;;;;11.77;6.10;;;6.90;99.30;;;;;;5045854;28;20217;-67
2022/03/19 05:06:00;;;;;;;14.95;8.70;;;6.80;99.30;;;;;;5053685;28;20217;-65
2022/03/19 05:08:27;;;;;;;13.77;5.07;;;6.80;99.40;;;;;;5053512;28;20656;-65
2022/03/19 05:13:39;;;;;;;10.80;4.93;;;6.80;99.40;;;;;;5054476;28;20306;-65
2022/03/19 05:16:06;;;;;;;15.10;6.30;;;6.70;99.60;;;;;;5054099;28;20687;-66
2022/03/19 05:18:33;;;;;;;11.07;5.15;;;6.70;99.70;;;;;;5054489;28;20224;-66
2022/03/19 05:21:00;;;;;;;14.85;6.13;;;6.70;99.70;;;;;;5053674;28;20232;-66
2022/03/19 05:23:27;;;;;;;12.13;6.43;;;6.70;99.80;;;;;;5053464;28;20225;-66
2022/03/19 05:25:53;;;;;;;6.55;5.15;;;6.70;99.70;;;;;;5053834;28;20229;-67
2022/03/19 05:28:20;;;;;;;17.92;6.15;;;6.70;99.70;;;;;;5054215;28;20221;-66
2022/03/19 05:30:49;;;;;;;14.90;6.40;;;6.70;99.70;;;;;;5036397;28;20234;-66
2022/03/19 05:33:16;;;;;;;18.92;10.63;;;6.70;99.80;;;;;;5050968;28;20240;-66
2022/03/19 05:35:44;;;;;;;10.45;6.18;;;6.60;99.80;;;;;;5052512;28;20225;-66
2022/03/19 05:38:12;;;;;;;15.52;4.70;;;6.60;99.90;;;;;;5052025;28;20229;-66
2022/03/19 05:40:39;;;;;;;15.70;5.40;;;6.50;99.90;;;;;;5052451;28;20298;-62
2022/03/19 05:43:06;;;;;;;15.95;5.93;;;6.50;99.90;;;;;;5052180;28;20225;-63
2022/03/19 05:45:32;;;;;;;9.80;4.25;;;6.50;99.90;;;;;;5052333;28;20221;-63
2022/03/19 05:48:01;;;;;;;10.85;5.93;;;6.50;99.90;;;;;;5052644;28;20249;-63
2022/03/19 05:50:28;;;;;;;10.27;4.70;;;6.50;99.90;;;;;;5053996;28;20221;-63
2022/03/19 05:52:57;;;;;;;10.23;4.88;;;6.60;99.90;;;;;;5053507;28;20240;-62
2022/03/19 05:55:24;;;;;;;8.80;5.00;;;6.60;99.90;;;;;;5054204;28;20268;-63
2022/03/19 05:57:51;;;;;;;12.48;5.47;;;6.50;99.90;;;;;;5053949;28;20221;-63
2022/03/19 06:00:18;;;;;;;13.90;4.72;;;6.50;99.90;;;;;;5053313;28;20236;-63
2022/03/19 06:02:45;;;;;;;9.23;4.85;;;6.50;99.90;;;;;;5053944;28;20705;-63
2022/03/19 06:05:13;;;;;;;7.82;4.72;;;6.60;99.90;;;;;;5053169;28;20225;-63
2022/03/19 06:07:40;;;;;;;7.43;5.53;;;6.50;99.90;;;;;;5053648;28;20233;-63
2022/03/19 06:10:08;;;;;;;8.13;4.40;;;6.50;99.90;;;;;;5053285;28;20227;-63
2022/03/19 06:12:35;;;;;;;11.18;5.20;;;6.60;99.90;;;;;;5053477;28;20217;-63
2022/03/19 06:15:03;;;;;;;13.40;5.22;;;6.50;99.90;;;;;;5053057;28;20249;-63
2022/03/19 06:17:30;;;;;;;9.50;4.80;;;6.50;99.90;;;;;;5053702;28;20221;-64
2022/03/19 06:19:57;;;;;;;5.72;4.38;;;6.50;99.90;;;;;;5053118;28;20228;-64
2022/03/19 06:22:25;;;;;;;10.30;4.75;;;6.60;99.90;;;;;;5053224;28;20236;-63
2022/03/19 06:24:52;;;;;;;9.70;4.95;;;6.60;99.90;;;;;;5052938;28;20679;-63
2022/03/19 06:27:19;;;;;;;16.48;7.40;;;6.60;99.90;;;;;;5053013;28;20571;-64
2022/03/19 06:29:46;;;;;;;8.55;4.65;;;6.50;99.90;;;;;;5042362;28;20233;-64
2022/03/19 06:32:14;;;;;;;9.30;4.40;;;6.60;99.90;;;;;;5046700;28;20570;-63
2022/03/19 06:34:41;;;;;;;7.47;4.60;;;6.60;99.90;;;;;;5051608;28;20236;-63
2022/03/19 06:37:22;;;;;;;9.23;3.80;;;6.60;99.90;;;;;;5050910;28;20225;-63
2022/03/19 06:39:54;;;;;;;6.90;3.67;;;6.60;99.90;;;;;;5051969;28;20322;-63
2022/03/19 06:42:22;;;;;;;10.77;4.55;;;6.60;99.90;;;;;;5052046;28;20217;-62
2022/03/19 06:44:49;;;;;;;9.50;4.50;;;6.60;99.90;;;;;;5052484;28;20624;-63
2022/03/19 06:47:16;;;;;;;9.25;4.05;;;6.60;99.90;;;;;;5050470;28;20228;-63
2022/03/19 06:49:43;;;;;;;9.60;4.07;;;6.60;99.90;;;;;;5036330;28;20691;-63
2022/03/19 06:52:11;;;;;;;8.75;4.80;;;6.70;99.90;;;;;;5030580;28;20753;-64
2022/03/19 06:54:38;;;;;;;10.18;4.22;;;6.70;99.90;;;;;;5031546;28;20252;-63
2022/03/19 06:57:06;;;;;;;11.82;4.50;;;6.80;99.90;;;;;;5030856;28;20355;-64
2022/03/19 06:59:33;;;;;;;15.18;10.57;;;6.80;99.90;;;;;;5031169;28;20218;-62
2022/03/19 07:02:00;;;;;;;10.57;6.00;;;6.90;99.90;;;;;;5031816;28;20615;-63
2022/03/19 07:04:27;;;;;;;11.50;4.20;;;7.00;99.90;;;;;;5032867;28;20278;-64
2022/03/19 07:06:54;;;;;;;8.23;4.25;;;6.90;99.90;;;;;;5032657;28;20230;-63
2022/03/19 07:09:21;;;;;;;7.20;4.32;;;7.00;99.90;;;;;;5032395;28;20221;-63
2022/03/19 07:11:47;;;;;;;5.05;3.20;;;7.10;99.90;;;;;;5042500;28;20225;-64
2022/03/19 07:14:17;;;;;;;12.02;4.32;;;7.10;99.90;;;;;;5051730;28;20229;-65
2022/03/19 07:16:44;;;;;;;14.02;4.82;;;7.10;99.90;;;;;;5052457;28;20233;-65
2022/03/19 07:19:12;;;;;;;10.00;3.75;;;7.10;99.90;;;;;;5052274;28;20614;-65
2022/03/19 07:21:38;;;;;;;6.25;4.55;;;7.20;99.90;;;;;;5052484;28;20230;-65
2022/03/19 07:24:06;;;;;;;6.60;3.50;;;7.20;99.90;;;;;;5052269;28;20225;-65
2022/03/19 07:26:33;;;;;;;8.65;3.38;;;7.20;99.90;;;;;;5052444;28;20687;-64
2022/03/19 07:29:00;;;;;;;6.80;3.50;;;7.40;99.90;;;;;;5052064;28;20708;-66
2022/03/19 07:31:29;;;;;;;9.07;3.78;;;7.40;99.90;;;;;;5052372;28;20290;-65
2022/03/19 07:33:56;;;;;;;6.18;3.55;;;7.40;99.90;;;;;;5052448;28;20225;-65
2022/03/19 07:36:22;;;;;;;9.05;3.20;;;7.50;99.90;;;;;;5052016;28;20220;-66
2022/03/19 07:38:49;;;;;;;10.25;3.20;;;7.50;99.90;;;;;;5052454;28;20225;-65
2022/03/19 07:44:00;;;;;;;11.50;3.60;;;7.60;99.90;;;;;;5052402;28;20562;-65
2022/03/19 07:46:28;;;;;;;6.20;2.97;;;7.70;99.90;;;;;;5052367;28;20966;-65
2022/03/19 07:48:55;;;;;;;6.07;3.13;;;7.80;99.90;;;;;;5056434;28;20244;-65
2022/03/19 07:51:22;;;;;;;6.82;3.28;;;7.90;99.80;;;;;;5055632;28;20564;-65
2022/03/19 07:53:49;;;;;;;6.47;3.60;;;7.90;99.80;;;;;;5056161;28;20221;-65
2022/03/19 07:56:16;;;;;;;5.47;2.65;;;8.00;99.80;;;;;;5055793;28;20327;-65
2022/03/19 07:58:45;;;;;;;6.90;4.10;;;8.10;99.70;;;;;;5056193;28;20572;-65
2022/03/19 08:01:12;;;;;;;8.82;4.70;;;8.10;99.40;;;;;;5055788;28;20252;-65
2022/03/19 08:03:40;;;;;;;9.10;3.70;;;8.20;99.40;;;;;;5056143;28;20221;-65
2022/03/19 08:06:07;;;;;;;10.25;3.42;;;8.30;99.40;;;;;;5055681;28;20229;-66
2022/03/19 08:08:34;;;;;;;8.45;3.20;;;8.40;99.20;;;;;;5056083;28;20228;-64
2022/03/19 08:11:02;;;;;;;5.63;2.22;;;8.50;98.80;;;;;;5055908;28;20225;-66
2022/03/19 08:13:29;;;;;;;6.43;2.95;;;8.60;98.50;;;;;;5055470;28;21029;-65
2022/03/19 08:15:56;;;;;;;9.13;3.25;;;8.60;98.20;;;;;;5055966;28;20225;-66
2022/03/19 08:18:23;;;;;;;12.38;3.90;;;8.70;98.20;;;;;;5055377;28;20567;-66
2022/03/19 08:20:51;;;;;;;6.05;3.00;;;8.80;98.10;;;;;;5055637;28;20225;-67
2022/03/19 08:23:19;;;;;;;9.52;2.90;;;8.90;98.00;;;;;;5055289;28;20228;-66
2022/03/19 08:25:46;;;;;;;4.93;2.50;;;8.90;97.80;;;;;;5055737;28;20233;-65
2022/03/19 08:28:13;;;;;;;11.90;3.45;;;9.00;97.80;;;;;;5055210;28;20679;-65
2022/03/19 08:30:40;;;;;;;9.30;3.10;;;9.10;97.60;;;;;;5055570;28;20233;-65
2022/03/19 08:33:07;;;;;;;11.77;4.57;;;9.10;97.40;;;;;;5054988;28;20249;-65
2022/03/19 08:35:34;;;;;;;8.77;4.18;;;9.20;97.30;;;;;;5055518;28;20752;-65
2022/03/19 08:40:46;;;;;;;7.45;3.05;;;9.30;96.80;;;;;;5055789;28;20260;-65
2022/03/19 08:43:13;;;;;;;6.47;2.70;;;9.30;96.70;;;;;;5055005;28;20236;-65
2022/03/19 08:45:41;;;;;;;9.18;3.60;;;9.30;96.80;;;;;;5055397;28;20624;-64
2022/03/19 08:48:09;;;;;;;7.78;2.78;;;9.30;96.80;;;;;;5055010;28;20300;-66
2022/03/19 08:50:36;;;;;;;12.15;3.80;;;9.30;96.80;;;;;;5054989;28;20225;-66
2022/03/19 08:53:11;;;;;;;4.60;3.10;;;9.40;96.80;;;;;;5054765;28;20225;-64
2022/03/19 08:55:38;;;;;;;5.00;3.33;;;9.40;96.70;;;;;;5054973;28;20578;-65
2022/03/19 08:58:06;;;;;;;6.35;3.53;;;9.50;96.60;;;;;;5053642;28;20256;-66
2022/03/19 09:00:33;;;;;;;11.25;3.28;;;9.50;96.70;;;;;;5054726;28;20225;-66
2022/03/19 09:03:01;;;;;;;8.45;3.13;;;9.50;96.50;;;;;;5054503;28;20217;-65
2022/03/19 09:05:28;;;;;;;7.43;3.35;;;9.60;96.40;;;;;;5054795;28;20221;-65
2022/03/19 09:07:55;;;;;;;8.55;3.42;;;9.60;96.20;;;;;;5054342;28;20724;-65
2022/03/19 09:10:23;;;;;;;8.10;2.80;;;9.70;96.20;;;;;;5054788;28;20233;-65
2022/03/19 09:12:50;;;;;;;5.47;2.80;;;9.80;95.70;;;;;;5054385;28;20236;-66
2022/03/19 09:15:17;;;;;;;4.70;2.50;;;9.80;95.50;;;;;;5054754;28;20225;-66
2022/03/19 09:17:44;;;;;;;6.15;2.80;;;9.90;95.40;;;;;;5054670;28;20235;-65
2022/03/19 09:20:12;;;;;;;11.75;2.60;;;9.90;95.40;;;;;;5054173;28;20233;-66
2022/03/19 09:22:39;;;;;;;8.48;3.30;;;10.00;94.90;;;;;;5054661;28;20575;-65
2022/03/19 09:25:06;;;;;;;16.20;2.78;;;10.10;94.00;;;;;;5054153;28;20229;-65
2022/03/19 09:27:39;;;;;;;7.00;3.60;;;10.10;94.00;;;;;;5054523;28;20221;-66
2022/03/19 09:30:07;;;;;;;3.65;2.17;;;10.20;93.90;;;;;;5054184;28;20316;-65
2022/03/19 09:32:35;;;;;;;7.78;2.72;;;10.30;93.70;;;;;;5054498;28;20231;-64
2022/03/19 09:35:01;;;;;;;3.38;2.05;;;10.40;93.60;;;;;;5053868;28;20240;-65
2022/03/19 09:37:28;;;;;;;5.90;2.60;;;10.40;93.50;;;;;;5054552;28;20217;-66
2022/03/19 09:39:55;;;;;;;5.90;2.00;;;10.50;93.10;;;;;;5053874;28;20236;-65
2022/03/19 09:42:22;;;;;;;6.90;3.13;;;10.50;92.80;;;;;;5054299;28;20225;-66
2022/03/19 09:44:50;;;;;;;3.65;2.35;;;10.60;92.60;;;;;;5054381;28;20225;-65
2022/03/19 09:47:17;;;;;;;5.93;2.50;;;10.70;92.50;;;;;;5053787;28;20216;-66
2022/03/19 09:49:44;;;;;;;7.97;2.28;;;10.70;92.40;;;;;;5054157;28;20716;-65
2022/03/19 09:52:13;;;;;;;5.72;2.20;;;10.80;91.80;;;;;;5053519;28;20713;-66
2022/03/19 09:54:40;;;;;;;7.03;2.33;;;10.80;91.40;;;;;;5053981;28;20251;-67
2022/03/19 09:57:07;;;;;;;6.72;3.65;;;10.80;90.90;;;;;;5053480;28;20225;-65
2022/03/19 09:59:37;;;;;;;5.95;3.67;;;10.80;91.30;;;;;;5053986;28;20225;-65
2022/03/19 10:02:08;;;;;;;6.32;2.90;;;10.80;91.10;;;;;;5053470;28;20231;-65
2022/03/19 10:04:39;;;;;;;4.32;2.63;;;10.90;91.30;;;;;;5053758;28;20727;-65
2022/03/19 10:09:50;;;;;;;5.15;2.83;;;10.90;90.80;;;;;;5053716;28;20297;-64
2022/03/19 10:12:19;;;;;;;5.07;2.97;;;10.90;90.40;;;;;;5053198;28;20557;-65
2022/03/19 10:14:51;;;;;;;5.03;4.30;;;11.00;90.50;;;;;;5053565;28;20221;-65
2022/03/19 10:17:33;;;;;;;10.68;2.75;;;11.00;90.70;;;;;;5053322;28;20651;-65
2022/03/19 10:20:03;;;;;;;7.78;3.08;;;11.00;90.50;;;;;;5053285;28;20223;-65
2022/03/19 10:22:31;;;;;;;10.07;3.97;;;11.00;90.80;;;;;;5053691;28;20229;-65
2022/03/19 10:25:02;;;;;;;5.05;3.13;;;10.90;90.70;;;;;;5053169;28;20229;-65
2022/03/19 10:27:34;;;;;;;6.43;3.33;;;11.00;91.00;;;;;;5053474;28;20233;-65
2022/03/19 10:30:13;;;;;;;5.85;2.63;;;11.00;91.00;;;;;;5052853;28;20236;-64
2022/03/19 10:32:41;;;;;;;13.70;6.13;;;11.10;90.40;;;;;;5053408;28;20221;-64
2022/03/19 10:35:24;;;;;;;8.68;3.35;;;11.10;90.20;;;;;;5052778;28;20685;-65
2022/03/19 10:37:51;;;;;;;6.30;3.10;;;11.20;90.10;;;;;;5053024;28;20686;-65
2022/03/19 10:40:18;;;;;;;5.82;2.85;;;11.20;90.10;;;;;;5052669;28;20213;-65
2022/03/19 10:42:45;;;;;;;7.85;3.50;;;11.30;90.00;;;;;;5053168;28;20534;-66
2022/03/19 10:45:16;;;;;;;8.50;4.30;;;11.30;89.40;;;;;;5052705;28;20687;-66
2022/03/19 10:47:46;;;;;;;4.63;3.10;;;11.30;88.20;;;;;;5053177;28;20229;-65
2022/03/19 10:50:19;;;;;;;7.70;3.60;;;11.30;87.30;;;;;;5052485;28;20312;-66
2022/03/19 10:52:47;;;;;;;9.63;4.13;;;11.30;87.40;;;;;;5052714;28;20229;-65
2022/03/19 10:55:14;;;;;;;5.68;3.20;;;11.30;87.70;;;;;;5052572;28;20233;-66
2022/03/19 10:57:44;;;;;;;3.95;3.53;;;11.40;88.00;;;;;;5052838;28;20630;-65
2022/03/19 11:00:12;;;;;;;6.88;3.72;;;11.40;87.80;;;;;;5052366;28;20237;-66
2022/03/19 11:02:43;;;;;;;6.45;3.70;;;11.50;87.00;;;;;;5052882;28;20229;-65
2022/03/19 11:05:12;;;;;;;7.45;3.90;;;11.50;86.50;;;;;;5052292;28;20232;-66
2022/03/19 11:07:42;;;;;;;5.80;3.88;;;11.60;86.50;;;;;;5052590;28;20232;-66
2022/03/19 11:10:11;;;;;;;4.40;2.97;;;11.70;86.20;;;;;;5052260;28;20221;-65
2022/03/19 11:12:40;;;;;;;6.85;3.33;;;11.80;85.30;;;;;;5052705;28;20221;-65
2022/03/19 11:15:12;;;;;;;4.95;3.85;;;11.80;83.10;;;;;;5052064;28;20310;-65
2022/03/19 11:17:41;;;;;;;10.65;3.42;;;11.90;83.30;;;;;;5052589;28;20222;-65
2022/03/19 11:20:11;;;;;;;4.07;2.97;;;11.90;81.70;;;;;;5052247;28;20236;-65
2022/03/19 11:22:40;;;;;;;6.60;3.50;;;12.00;82.20;;;;;;5051882;28;20290;-65
2022/03/19 11:25:17;;;;;;;8.30;3.42;;;12.00;81.50;;;;;;5052063;28;20229;-66
2022/03/19 11:27:47;;;;;;;4.07;3.00;;;12.00;81.70;;;;;;5052691;28;20236;-66
2022/03/19 11:30:21;;;;;;;4.53;2.70;;;11.90;82.10;;;;;;5052002;28;20227;-66
2022/03/19 11:33:03;;;;;;;5.38;3.20;;;12.10;82.70;;;;;;5052467;28;20243;-65
2022/03/19 11:35:32;;;;;;;4.85;2.97;;;12.10;81.70;;;;;;5052228;28;20271;-65
2022/03/19 11:38:01;;;;;;;10.23;3.63;;;12.20;81.30;;;;;;5052417;28;20675;-65
2022/03/19 11:40:32;;;;;;;5.38;3.10;;;12.20;81.30;;;;;;5052038;28;20584;-65
2022/03/19 11:43:01;;;;;;;7.70;3.22;;;12.30;82.00;;;;;;5052341;28;20221;-65
2022/03/19 11:45:37;;;;;;;7.32;3.42;;;12.20;81.40;;;;;;5051913;28;20221;-65
2022/03/19 11:48:04;;;;;;;5.45;3.35;;;12.30;82.20;;;;;;5052346;28;20224;-66
2022/03/19 11:50:37;;;;;;;8.65;3.63;;;12.20;81.10;;;;;;5052021;28;20220;-65
2022/03/19 11:53:07;;;;;;;5.97;3.90;;;12.10;80.90;;;;;;5051998;28;20228;-66
2022/03/19 11:55:39;;;;;;;6.55;3.97;;;12.00;82.10;;;;;;5051977;28;20228;-64
2022/03/19 11:58:16;;;;;;;4.20;3.22;;;12.00;82.50;;;;;;5052407;28;20287;-67
2022/03/19 12:00:43;;;;;;;9.80;3.60;;;11.90;82.70;;;;;;5051993;28;20240;-66
2022/03/19 12:03:13;;;;;;;9.27;4.38;;;12.00;83.00;;;;;;5052182;28;20304;-66
2022/03/19 12:05:44;;;;;;;6.90;4.55;;;11.90;83.60;;;;;;5051872;28;20547;-66
2022/03/19 12:08:16;;;;;;;11.93;5.68;;;11.90;84.10;;;;;;5052041;28;20228;-65
2022/03/19 12:10:58;;;;;;;11.60;6.18;;;11.90;84.70;;;;;;5051749;28;20239;-64
2022/03/19 12:13:47;;;;;;;11.13;6.10;;;11.80;84.80;;;;;;5051665;28;20271;-66
2022/03/19 12:16:35;;;;;;;6.38;5.20;;;11.80;85.50;;;;;;5051938;28;20229;-66
2022/03/19 12:19:02;;;;;;;10.35;6.20;;;11.90;85.80;;;;;;5051696;28;20220;-66
2022/03/19 12:21:35;;;;;;;7.47;5.38;;;12.00;85.90;;;;;;5052127;28;20228;-65
2022/03/19 12:24:23;;;;;;;8.85;6.47;;;12.00;85.60;;;;;;5051751;28;20239;-66
2022/03/19 12:26:51;;;;;;;6.55;5.80;;;12.00;85.40;;;;;;5052084;28;20576;-66
2022/03/19 12:29:20;;;;;;;8.25;6.20;;;12.10;85.60;;;;;;5051448;28;20301;-66
2022/03/19 12:31:49;;;;;;;11.30;6.05;;;12.20;85.80;;;;;;5051774;28;20232;-66
2022/03/19 12:34:18;;;;;;;7.88;6.10;;;12.20;85.90;;;;;;5054613;28;20294;-66
2022/03/19 12:36:47;;;;;;;8.45;6.40;;;12.20;86.00;;;;;;5055336;28;20221;-66
2022/03/19 12:39:14;;;;;;;8.95;6.25;;;12.20;86.50;;;;;;5055037;28;20221;-66
2022/03/19 12:41:42;;;;;;;9.98;7.28;;;12.20;86.30;;;;;;5055387;28;20236;-66
2022/03/19 12:44:18;;;;;;;13.02;7.57;;;12.20;86.60;;;;;;5054928;28;20229;-67
2022/03/19 12:46:47;;;;;;;10.00;7.45;;;12.30;86.60;;;;;;5055401;28;20571;-65
2022/03/19 12:49:16;;;;;;;8.88;6.90;;;12.40;87.40;;;;;;5055063;28;20239;-66
2022/03/19 12:51:46;;;;;;;10.63;8.25;;;12.30;84.40;;;;;;5054901;28;20225;-65
2022/03/19 12:54:21;;;;;;;12.43;9.60;;;12.30;85.60;;;;;;5054742;28;20232;-65
2022/03/19 12:56:49;;;;;;;14.07;10.70;;;12.30;83.70;;;;;;5054976;28;20233;-66
2022/03/19 12:59:18;;;;;;;13.18;10.50;;;12.30;84.30;;;;;;5054694;28;20216;-65
2022/03/19 13:01:46;;;;;;;16.85;10.45;;;12.20;84.10;;;;;;5054853;28;20228;-65
2022/03/19 13:04:19;;;;;;;11.82;10.63;;;12.20;84.30;;;;;;5054559;28;20244;-66
2022/03/19 13:06:47;;;;;;;12.15;9.32;;;12.30;84.90;;;;;;5055039;28;20236;-66
2022/03/19 13:09:14;;;;;;;14.27;11.20;;;12.40;85.50;;;;;;5054536;28;20571;-65